Terminal Aerodrome Forecast
Issued by NWS Jackson, MS

Home | Current Version | Previous Version | Text Only | Print | Product List | Glossary On
Versions: 1 2 3 4 5 6 7 8 9 10 11 12 13 14 15 16
635
FTUS44 KJAN 251725
TAFJAN
TAF
KJAN 251725Z 2518/2618 VRB03KT P6SM -RA FEW070 OVC110
     FM252100 05005KT 5SM -RA BR BKN010 OVC080
     FM260200 02006KT 3SM RA BR OVC005
     FM260600 02006KT 4SM -RA BR OVC007
     FM261000 36008KT 5SM BR OVC007=

USA.gov is the U.S. government's official web portal to all federal, state and local government web resources and services.